createdAt,value
2022-11-03T00:02:25.084Z,7.47
2022-11-03T00:04:51.764Z,7.72
2022-11-03T00:07:22.098Z,7.72
2022-11-03T00:09:49.032Z,7.00
2022-11-03T00:12:15.671Z,6.82
2022-11-03T00:14:42.256Z,6.45
2022-11-03T00:17:08.821Z,6.35
2022-11-03T00:19:35.400Z,6.25
2022-11-03T00:22:02.027Z,5.53
2022-11-03T00:24:28.631Z,5.60
2022-11-03T00:26:55.226Z,5.90
2022-11-03T00:29:21.804Z,6.07
2022-11-03T00:31:48.441Z,6.50
2022-11-03T00:34:15.004Z,6.22
2022-11-03T00:36:42.826Z,5.38
2022-11-03T00:39:09.910Z,5.78
2022-11-03T00:41:36.916Z,5.82
2022-11-03T00:44:03.930Z,5.90
2022-11-03T00:46:30.725Z,5.45
2022-11-03T00:48:57.389Z,6.75
2022-11-03T00:51:25.005Z,5.68
2022-11-03T00:53:55.817Z,5.75
2022-11-03T00:56:23.872Z,5.70
2022-11-03T00:58:51.297Z,5.60
2022-11-03T01:01:18.976Z,6.10
2022-11-03T01:04:06.920Z,6.05
2022-11-03T01:06:52.535Z,5.28
2022-11-03T01:09:25.264Z,5.93
2022-11-03T01:12:09.434Z,6.43
2022-11-03T01:14:40.844Z,5.75
2022-11-03T01:17:11.316Z,5.97
2022-11-03T01:19:38.292Z,6.28
2022-11-03T01:22:07.817Z,6.28
2022-11-03T01:24:37.400Z,6.60
2022-11-03T01:27:04.012Z,7.13
2022-11-03T01:29:30.648Z,6.55
2022-11-03T01:31:57.751Z,7.40
2022-11-03T01:34:24.505Z,7.20
2022-11-03T01:36:51.166Z,8.25
2022-11-03T01:39:19.565Z,8.68
2022-11-03T01:41:47.473Z,7.43
2022-11-03T01:44:14.001Z,7.40
2022-11-03T01:47:06.349Z,7.53
2022-11-03T01:49:32.922Z,7.78
2022-11-03T01:52:02.237Z,7.68
2022-11-03T01:54:29.726Z,8.13
2022-11-03T01:56:57.362Z,7.38
2022-11-03T01:59:24.666Z,7.78
2022-11-03T02:01:51.590Z,7.35
2022-11-03T02:04:25.503Z,8.25
2022-11-03T02:06:58.861Z,8.88
2022-11-03T02:09:25.912Z,10.07
2022-11-03T02:12:08.181Z,9.95
2022-11-03T02:14:36.476Z,9.32
2022-11-03T02:17:05.757Z,9.00
2022-11-03T02:19:32.327Z,10.02
2022-11-03T02:22:21.942Z,8.85
2022-11-03T02:24:51.306Z,8.10
2022-11-03T02:27:20.696Z,8.05
2022-11-03T02:29:47.339Z,8.88
2022-11-03T02:32:22.628Z,8.05
2022-11-03T02:34:55.391Z,8.10
2022-11-03T02:37:23.834Z,8.77
2022-11-03T02:39:53.166Z,9.00
2022-11-03T02:42:20.035Z,8.68
2022-11-03T02:44:47.309Z,9.90
2022-11-03T02:47:14.856Z,8.75
2022-11-03T02:49:48.284Z,8.85
2022-11-03T02:52:34.026Z,10.00
2022-11-03T02:55:01.925Z,10.05
2022-11-03T02:57:30.668Z,9.05
2022-11-03T03:00:00.072Z,9.48
2022-11-03T03:02:32.736Z,9.88
2022-11-03T03:05:02.109Z,9.30
2022-11-03T03:07:34.212Z,9.55
2022-11-03T03:10:07.120Z,11.52
2022-11-03T03:12:35.965Z,11.07
2022-11-03T03:15:04.140Z,10.55
2022-11-03T03:17:30.722Z,11.52
2022-11-03T03:20:26.460Z,10.25
2022-11-03T03:22:56.712Z,10.98
2022-11-03T03:25:38.953Z,9.55
2022-11-03T03:28:09.902Z,11.70
2022-11-03T03:30:39.768Z,12.70
2022-11-03T03:33:09.766Z,11.35
2022-11-03T03:35:38.738Z,12.18
2022-11-03T03:38:08.150Z,11.70
2022-11-03T03:40:36.335Z,11.60
2022-11-03T03:43:04.690Z,11.70
2022-11-03T03:45:31.672Z,11.90
2022-11-03T03:47:58.780Z,12.10
2022-11-03T03:50:26.858Z,11.25
2022-11-03T03:53:04.202Z,12.07
2022-11-03T03:55:35.641Z,11.73
2022-11-03T03:58:03.329Z,11.82
2022-11-03T04:00:30.183Z,12.48
2022-11-03T04:02:57.758Z,12.35
2022-11-03T04:05:24.707Z,11.75
2022-11-03T04:07:51.665Z,12.60
2022-11-03T04:10:19.647Z,14.90
2022-11-03T04:13:04.975Z,12.57
2022-11-03T04:15:50.865Z,12.60
2022-11-03T04:18:36.772Z,11.88
2022-11-03T04:21:22.691Z,11.75
2022-11-03T04:23:49.464Z,12.57
2022-11-03T04:26:22.878Z,12.38
2022-11-03T04:28:49.943Z,11.95
2022-11-03T04:31:18.117Z,11.80
2022-11-03T04:33:45.046Z,12.68
2022-11-03T04:36:15.292Z,13.77
2022-11-03T04:38:43.156Z,11.30
2022-11-03T04:41:29.265Z,12.35
2022-11-03T04:43:56.932Z,11.68
2022-11-03T04:46:28.260Z,10.95
2022-11-03T04:48:57.401Z,12.18
2022-11-03T04:51:25.651Z,12.98
2022-11-03T04:54:15.323Z,12.88
2022-11-03T04:56:42.030Z,12.15
2022-11-03T04:59:15.455Z,12.98
2022-11-03T05:01:43.665Z,12.93
2022-11-03T05:04:14.508Z,11.77
2022-11-03T05:06:41.797Z,11.93
2022-11-03T05:09:14.394Z,11.88
2022-11-03T05:11:46.893Z,12.10
2022-11-03T05:14:13.435Z,13.25
2022-11-03T05:16:40.105Z,12.48
2022-11-03T05:19:13.310Z,10.80
2022-11-03T05:21:40.032Z,10.35
2022-11-03T05:24:11.229Z,12.27
2022-11-03T05:26:38.066Z,10.63
2022-11-03T05:29:11.100Z,11.63
2022-11-03T05:31:42.160Z,13.57
2022-11-03T05:34:27.242Z,11.63
2022-11-03T05:36:54.004Z,10.35
2022-11-03T05:39:23.367Z,9.77
2022-11-03T05:41:50.005Z,10.25
2022-11-03T05:44:37.001Z,11.43
2022-11-03T05:47:08.983Z,11.32
2022-11-03T05:49:35.560Z,11.80
2022-11-03T05:52:04.801Z,12.32
2022-11-03T05:54:32.826Z,12.68
2022-11-03T05:56:59.452Z,11.88
2022-11-03T05:59:28.096Z,13.73
2022-11-03T06:01:55.828Z,12.55
2022-11-03T06:04:28.668Z,12.60
2022-11-03T06:07:24.727Z,12.27
2022-11-03T06:09:52.435Z,12.00
2022-11-03T06:12:20.709Z,11.90
2022-11-03T06:14:47.278Z,12.00
2022-11-03T06:17:21.193Z,10.77
2022-11-03T06:19:48.799Z,9.65
2022-11-03T06:22:18.686Z,11.07
2022-11-03T06:24:45.816Z,10.30
2022-11-03T06:27:16.609Z,10.93
2022-11-03T06:29:45.513Z,11.35
2022-11-03T06:32:13.193Z,11.93
2022-11-03T06:34:47.204Z,12.15
2022-11-03T06:37:26.128Z,11.13
2022-11-03T06:40:03.529Z,12.15
2022-11-03T06:42:33.256Z,11.50
2022-11-03T06:45:01.483Z,11.30
2022-11-03T06:47:29.133Z,10.05
2022-11-03T06:49:58.376Z,10.52
2022-11-03T06:52:33.749Z,11.55
2022-11-03T06:55:10.853Z,12.35
2022-11-03T06:57:41.716Z,11.40
2022-11-03T07:03:02.503Z,10.50
2022-11-03T07:05:30.302Z,11.10
2022-11-03T07:07:58.749Z,11.07
2022-11-03T07:10:33.148Z,10.85
2022-11-03T07:13:05.813Z,10.00
2022-11-03T07:15:37.075Z,10.40
2022-11-03T07:18:05.415Z,9.88
2022-11-03T07:20:32.186Z,10.43
2022-11-03T07:23:01.149Z,10.20
2022-11-03T07:25:27.701Z,9.73
2022-11-03T07:27:55.448Z,9.20
2022-11-03T07:30:23.061Z,9.38
2022-11-03T07:32:51.924Z,10.90
2022-11-03T07:35:18.500Z,9.02
2022-11-03T07:37:45.470Z,10.52
2022-11-03T07:40:20.763Z,11.00
2022-11-03T07:42:47.405Z,9.63
2022-11-03T07:45:31.481Z,10.38
2022-11-03T07:48:01.749Z,9.70
2022-11-03T07:50:30.060Z,10.45
2022-11-03T07:52:56.589Z,11.18
2022-11-03T07:55:23.233Z,10.80
2022-11-03T07:57:49.824Z,10.00
2022-11-03T08:00:22.695Z,10.07
2022-11-03T08:02:51.711Z,10.35
2022-11-03T08:07:45.927Z,9.80
2022-11-03T08:10:13.763Z,10.13
2022-11-03T08:12:40.390Z,10.30
2022-11-03T08:15:07.360Z,9.77
2022-11-03T08:17:33.930Z,10.68
2022-11-03T08:20:00.622Z,9.40
2022-11-03T08:22:27.202Z,10.07
2022-11-03T08:24:53.808Z,10.80
2022-11-03T08:27:20.490Z,10.20
2022-11-03T08:29:47.273Z,11.63
2022-11-03T08:32:14.205Z,10.98
2022-11-03T08:34:44.600Z,10.93
2022-11-03T08:37:17.862Z,10.77
2022-11-03T08:39:44.889Z,11.65
2022-11-03T08:42:11.475Z,11.52
2022-11-03T08:44:38.653Z,11.73
2022-11-03T08:47:05.308Z,11.70
2022-11-03T08:49:31.863Z,10.73
2022-11-03T08:51:58.739Z,10.95
2022-11-03T08:54:25.357Z,11.05
2022-11-03T08:56:51.931Z,10.85
2022-11-03T08:59:18.588Z,10.90
2022-11-03T09:01:45.389Z,10.07
2022-11-03T09:04:12.081Z,12.70
2022-11-03T09:06:38.736Z,11.77
2022-11-03T09:11:52.238Z,10.93
2022-11-03T09:14:20.076Z,11.00
2022-11-03T09:16:46.931Z,11.00
2022-11-03T09:19:13.612Z,11.60
2022-11-03T09:21:40.162Z,10.57
2022-11-03T09:24:07.420Z,11.07
2022-11-03T09:26:34.083Z,11.18
2022-11-03T09:29:00.610Z,11.05
2022-11-03T09:31:28.699Z,9.98
2022-11-03T09:33:55.681Z,13.20
2022-11-03T09:36:22.232Z,12.50
2022-11-03T09:38:48.922Z,12.52
2022-11-03T09:41:26.366Z,11.88
2022-11-03T09:43:53.710Z,11.48
2022-11-03T09:46:20.369Z,10.73
2022-11-03T09:48:46.989Z,11.55
2022-11-03T09:51:17.335Z,11.27
2022-11-03T09:53:44.021Z,11.85
2022-11-03T09:56:10.924Z,12.63
2022-11-03T09:58:37.637Z,12.07
2022-11-03T10:01:04.514Z,11.32
2022-11-03T10:03:31.135Z,10.70
2022-11-03T10:06:00.051Z,11.45
2022-11-03T10:08:28.692Z,11.15
2022-11-03T10:10:55.725Z,11.35
2022-11-03T10:13:24.479Z,12.82
2022-11-03T10:15:51.139Z,12.07
2022-11-03T10:18:18.980Z,11.75
2022-11-03T10:20:45.767Z,12.48
2022-11-03T10:23:12.323Z,11.75
2022-11-03T10:25:40.419Z,11.48
2022-11-03T10:28:14.535Z,12.13
2022-11-03T10:31:10.748Z,11.65
2022-11-03T10:33:52.177Z,11.82
2022-11-03T10:36:19.012Z,11.27
2022-11-03T10:38:46.208Z,12.05
2022-11-03T10:41:14.406Z,11.30
2022-11-03T10:43:41.872Z,11.50
2022-11-03T10:46:29.527Z,10.80
2022-11-03T10:49:04.325Z,11.98
2022-11-03T10:51:30.970Z,11.35
2022-11-03T10:53:57.968Z,12.48
2022-11-03T10:56:24.986Z,11.70
2022-11-03T10:58:51.790Z,11.77
2022-11-03T11:01:18.603Z,12.00
2022-11-03T11:03:45.588Z,11.65
2022-11-03T11:06:19.315Z,11.63
2022-11-03T11:08:46.162Z,12.27
2022-11-03T11:11:15.196Z,11.80
2022-11-03T11:13:41.957Z,11.88
2022-11-03T11:16:28.479Z,11.65
2022-11-03T11:18:55.144Z,11.43
2022-11-03T11:21:22.057Z,11.20
2022-11-03T11:23:49.252Z,12.05
2022-11-03T11:26:15.805Z,11.23
2022-11-03T11:28:43.778Z,12.20
2022-11-03T11:31:19.521Z,12.07
2022-11-03T11:33:46.134Z,11.40
2022-11-03T11:36:23.552Z,12.55
2022-11-03T11:38:55.267Z,12.55
2022-11-03T11:41:22.512Z,11.07
2022-11-03T11:43:49.113Z,11.43
2022-11-03T11:46:34.347Z,10.98
2022-11-03T11:49:04.056Z,12.30
2022-11-03T11:51:34.654Z,11.55
2022-11-03T11:54:17.670Z,11.45
2022-11-03T11:56:48.834Z,12.23
2022-11-03T11:59:20.190Z,12.82
2022-11-03T12:01:52.280Z,12.27
2022-11-03T12:04:24.240Z,12.77
2022-11-03T12:06:51.073Z,12.57
2022-11-03T12:09:19.499Z,12.73
2022-11-03T12:11:49.063Z,12.07
2022-11-03T12:14:25.592Z,11.85
2022-11-03T12:16:53.188Z,12.07
2022-11-03T12:19:39.691Z,11.30
2022-11-03T12:22:10.486Z,11.68
2022-11-03T12:24:37.487Z,11.93
2022-11-03T12:27:16.178Z,12.60
2022-11-03T12:29:42.728Z,11.30
2022-11-03T12:32:25.555Z,11.27
2022-11-03T12:34:56.471Z,11.52
2022-11-03T12:37:23.348Z,12.25
2022-11-03T12:39:49.974Z,12.48
2022-11-03T12:42:16.916Z,12.18
2022-11-03T12:44:44.004Z,11.65
2022-11-03T12:47:10.682Z,12.95
2022-11-03T12:49:37.330Z,12.93
2022-11-03T12:52:08.249Z,12.48
2022-11-03T12:54:35.364Z,12.18
2022-11-03T12:57:02.392Z,12.27
2022-11-03T12:59:29.250Z,12.43
2022-11-03T13:01:55.963Z,12.88
2022-11-03T13:04:22.757Z,13.43
2022-11-03T13:06:49.327Z,12.43
2022-11-03T13:09:15.920Z,13.45
2022-11-03T13:12:01.027Z,14.35
2022-11-03T13:14:27.629Z,13.23
2022-11-03T13:16:54.301Z,13.85
2022-11-03T13:19:20.910Z,14.57
2022-11-03T13:21:47.516Z,14.15
2022-11-03T13:24:14.135Z,12.80
2022-11-03T13:26:40.723Z,13.43
2022-11-03T13:29:07.729Z,14.25
2022-11-03T13:31:35.747Z,13.82
2022-11-03T13:34:02.482Z,13.23
2022-11-03T13:36:29.137Z,13.95
2022-11-03T13:38:55.839Z,14.35
2022-11-03T13:41:22.458Z,14.30
2022-11-03T13:43:49.048Z,14.23
2022-11-03T13:46:15.591Z,13.98
2022-11-03T13:51:28.716Z,14.48
2022-11-03T13:59:29.312Z,13.25
2022-11-03T14:04:43.544Z,14.25
2022-11-03T14:07:10.880Z,14.63
2022-11-03T14:12:27.698Z,15.38
2022-11-03T14:14:54.337Z,15.10
2022-11-03T14:17:20.977Z,15.48
2022-11-03T14:19:52.319Z,14.95
2022-11-03T14:22:23.815Z,15.30
2022-11-03T14:24:51.504Z,15.63
2022-11-03T14:27:18.976Z,15.32
2022-11-03T14:29:46.043Z,16.08
2022-11-03T14:32:12.637Z,15.45
2022-11-03T14:34:39.543Z,16.38
2022-11-03T14:37:07.037Z,16.55
2022-11-03T14:39:33.701Z,15.75
2022-11-03T14:42:03.234Z,15.55
2022-11-03T14:44:31.026Z,21.48
2022-11-03T14:46:57.803Z,17.02
2022-11-03T14:49:24.518Z,17.08
2022-11-03T14:51:51.139Z,16.85
2022-11-03T14:54:17.775Z,16.75
2022-11-03T14:56:44.400Z,16.05
2022-11-03T14:59:11.665Z,16.63
2022-11-03T15:01:38.911Z,16.85
2022-11-03T15:04:06.908Z,16.08
2022-11-03T15:06:42.008Z,17.27
2022-11-03T15:11:41.367Z,15.90
2022-11-03T15:14:08.582Z,14.95
2022-11-03T15:16:43.885Z,14.45
2022-11-03T15:19:10.539Z,15.98
2022-11-03T15:21:37.167Z,14.82
2022-11-03T15:26:50.807Z,15.02
2022-11-03T15:29:17.456Z,15.80
2022-11-03T15:31:47.914Z,16.00
2022-11-03T15:34:15.483Z,15.15
2022-11-03T15:36:42.253Z,16.35
2022-11-03T15:39:08.942Z,16.35
2022-11-03T15:41:35.594Z,15.88
2022-11-03T15:44:02.232Z,16.60
2022-11-03T15:46:29.018Z,16.40
2022-11-03T15:48:57.838Z,15.13
2022-11-03T15:51:25.148Z,15.15
2022-11-03T15:53:57.911Z,14.60
2022-11-03T15:56:26.077Z,15.07
2022-11-03T15:58:52.809Z,16.00
2022-11-03T16:01:19.534Z,16.15
2022-11-03T16:03:46.305Z,15.60
2022-11-03T16:06:13.077Z,14.98
2022-11-03T16:08:39.960Z,14.98
2022-11-03T16:11:06.597Z,14.80
2022-11-03T16:13:33.202Z,15.95
2022-11-03T16:15:59.797Z,15.10
2022-11-03T16:18:26.381Z,15.35
2022-11-03T16:20:52.993Z,15.23
2022-11-03T16:23:19.679Z,16.23
2022-11-03T16:25:46.383Z,16.00
2022-11-03T16:28:13.073Z,15.88
2022-11-03T16:30:39.679Z,15.93
2022-11-03T16:33:07.531Z,14.63
2022-11-03T16:35:34.496Z,15.30
2022-11-03T16:38:01.579Z,16.50
2022-11-03T16:40:28.226Z,15.65
2022-11-03T16:42:54.842Z,16.10
2022-11-03T16:45:22.789Z,15.70
2022-11-03T16:47:49.999Z,15.65
2022-11-03T16:50:20.143Z,15.80
2022-11-03T16:52:49.641Z,16.30
2022-11-03T16:55:17.337Z,15.13
2022-11-03T16:57:46.813Z,17.33
2022-11-03T17:00:14.598Z,16.30
2022-11-03T17:02:42.281Z,15.63
2022-11-03T17:05:09.112Z,18.17
2022-11-03T17:07:35.914Z,16.65
2022-11-03T17:10:02.759Z,17.17
2022-11-03T17:12:29.432Z,17.27
2022-11-03T17:15:10.524Z,17.83
2022-11-03T17:17:40.555Z,17.88
2022-11-03T17:20:08.959Z,16.38
2022-11-03T17:22:35.761Z,16.13
2022-11-03T17:25:02.968Z,15.40
2022-11-03T17:27:43.812Z,16.10
2022-11-03T17:30:21.316Z,15.68
2022-11-03T17:32:50.083Z,16.70
2022-11-03T17:35:18.421Z,15.73
2022-11-03T17:37:45.288Z,16.02
2022-11-03T17:40:23.997Z,16.58
2022-11-03T17:42:58.131Z,15.98
2022-11-03T17:45:25.580Z,16.08
2022-11-03T17:47:55.467Z,17.35
2022-11-03T17:50:23.903Z,16.92
2022-11-03T17:52:51.265Z,16.90
2022-11-03T17:55:23.808Z,15.98
2022-11-03T17:57:50.488Z,16.92
2022-11-03T18:00:20.804Z,16.95
2022-11-03T18:02:48.495Z,17.58
2022-11-03T18:05:26.893Z,19.10
2022-11-03T18:07:54.979Z,18.17
2022-11-03T18:10:35.208Z,17.80
2022-11-03T18:13:17.088Z,17.42
2022-11-03T18:15:49.525Z,18.15
2022-11-03T18:18:37.699Z,16.75
2022-11-03T18:21:07.033Z,16.98
2022-11-03T18:23:34.584Z,17.80
2022-11-03T18:26:01.898Z,16.75
2022-11-03T18:28:28.855Z,16.17
2022-11-03T18:30:59.293Z,17.77
2022-11-03T18:33:29.040Z,16.95
2022-11-03T18:36:06.232Z,17.70
2022-11-03T18:38:34.799Z,18.27
2022-11-03T18:41:01.598Z,17.58
2022-11-03T18:43:28.758Z,17.77
2022-11-03T18:45:55.391Z,18.50
2022-11-03T18:48:22.043Z,17.73
2022-11-03T18:50:50.008Z,18.60
2022-11-03T18:53:17.565Z,18.20
2022-11-03T18:55:44.373Z,20.40
2022-11-03T18:58:18.662Z,20.35
2022-11-03T19:00:45.441Z,19.92
2022-11-03T19:03:16.502Z,18.20
2022-11-03T19:05:45.895Z,17.17
2022-11-03T19:08:32.761Z,19.17
2022-11-03T19:11:03.996Z,19.38
2022-11-03T19:13:35.826Z,19.95
2022-11-03T19:16:04.876Z,19.58
2022-11-03T19:18:34.467Z,19.52
2022-11-03T19:21:01.108Z,19.02
2022-11-03T19:23:27.688Z,18.58
2022-11-03T19:25:56.598Z,17.83
2022-11-03T19:28:23.250Z,17.80
2022-11-03T19:30:51.854Z,20.08
2022-11-03T19:33:23.565Z,18.85
2022-11-03T19:35:50.375Z,19.60
2022-11-03T19:38:17.980Z,19.25
2022-11-03T19:41:06.549Z,18.63
2022-11-03T19:43:34.849Z,17.08
2022-11-03T19:46:01.851Z,17.35
2022-11-03T19:48:29.981Z,17.05
2022-11-03T19:50:56.830Z,18.08
2022-11-03T19:53:27.538Z,20.85
2022-11-03T19:55:54.782Z,21.00
2022-11-03T19:58:23.433Z,20.50
2022-11-03T20:00:50.712Z,21.45
2022-11-03T20:03:17.616Z,21.20
2022-11-03T20:05:48.986Z,21.20
2022-11-03T20:08:19.134Z,19.58
2022-11-03T20:10:47.796Z,19.75
2022-11-03T20:13:16.674Z,18.90
2022-11-03T20:15:43.315Z,17.63
2022-11-03T20:18:13.382Z,17.73
2022-11-03T20:20:40.509Z,17.42
2022-11-03T20:23:07.789Z,17.60
2022-11-03T20:25:35.512Z,16.88
2022-11-03T20:28:06.328Z,15.90
2022-11-03T20:30:32.946Z,15.60
2022-11-03T20:32:59.507Z,13.98
2022-11-03T20:35:27.477Z,14.82
2022-11-03T20:37:57.881Z,13.55
2022-11-03T20:40:26.405Z,15.68
2022-11-03T20:42:57.930Z,13.43
2022-11-03T20:45:25.343Z,14.85
2022-11-03T20:47:52.572Z,14.43
2022-11-03T20:50:20.196Z,15.50
2022-11-03T20:52:47.397Z,14.50
2022-11-03T20:55:15.243Z,14.77
2022-11-03T20:57:41.844Z,14.02
2022-11-03T21:00:12.254Z,14.25
2022-11-03T21:02:39.035Z,13.65
2022-11-03T21:05:12.474Z,13.00
2022-11-03T21:07:39.144Z,12.88
2022-11-03T21:10:06.012Z,11.90
2022-11-03T21:12:32.777Z,11.00
2022-11-03T21:15:18.093Z,10.35
2022-11-03T21:18:03.328Z,9.80
2022-11-03T21:20:31.745Z,8.13
2022-11-03T21:22:58.963Z,7.18
2022-11-03T21:25:26.123Z,4.28
2022-11-03T21:27:54.033Z,4.10
2022-11-03T21:30:21.172Z,3.30
2022-11-03T21:32:48.012Z,3.20
2022-11-03T21:35:16.106Z,3.80
2022-11-03T21:37:42.725Z,3.22
2022-11-03T21:40:10.302Z,3.78
2022-11-03T21:42:55.619Z,3.83
2022-11-03T21:45:22.257Z,3.90
2022-11-03T21:48:24.272Z,3.60
2022-11-03T21:50:51.014Z,2.85
2022-11-03T21:53:17.668Z,2.70
2022-11-03T21:55:46.544Z,2.85
2022-11-03T21:58:13.169Z,2.38
2022-11-03T22:00:39.740Z,2.72
2022-11-03T22:03:07.036Z,2.28
2022-11-03T22:05:34.194Z,1.90
2022-11-03T22:08:00.831Z,2.00
2022-11-03T22:10:27.934Z,1.60
2022-11-03T22:12:54.577Z,1.85
2022-11-03T22:15:39.695Z,1.80
2022-11-03T22:18:07.156Z,1.80
2022-11-03T22:20:54.029Z,2.10
2022-11-03T22:23:39.348Z,2.20
2022-11-03T22:26:26.875Z,1.90
2022-11-03T22:29:12.235Z,2.40
2022-11-03T22:31:41.969Z,3.28
2022-11-03T22:34:27.414Z,2.15
2022-11-03T22:36:53.998Z,2.55
2022-11-03T22:39:38.874Z,2.72
2022-11-03T22:42:24.249Z,2.67
2022-11-03T22:45:09.654Z,3.20
2022-11-03T22:47:36.364Z,3.28
2022-11-03T22:50:02.944Z,2.80
2022-11-03T22:52:29.534Z,2.58
2022-11-03T22:54:56.398Z,2.47
2022-11-03T22:57:23.199Z,2.80
2022-11-03T22:59:49.802Z,2.53
2022-11-03T23:02:16.434Z,2.13
2022-11-03T23:04:43.054Z,2.10
2022-11-03T23:07:09.649Z,2.00
2022-11-03T23:09:36.296Z,1.75
2022-11-03T23:12:03.469Z,1.60
2022-11-03T23:14:50.145Z,1.20
2022-11-03T23:17:16.737Z,1.20
2022-11-03T23:20:02.164Z,1.25
2022-11-03T23:22:28.879Z,1.13
2022-11-03T23:25:01.600Z,1.30
2022-11-03T23:27:28.429Z,1.05
2022-11-03T23:29:55.011Z,1.00
2022-11-03T23:32:21.570Z,1.00
2022-11-03T23:34:48.158Z,0.98
2022-11-03T23:37:14.794Z,1.27
2022-11-03T23:39:41.393Z,0.80
2022-11-03T23:42:08.062Z,0.80
2022-11-03T23:44:53.147Z,0.88
2022-11-03T23:47:38.499Z,0.80
2022-11-03T23:50:05.359Z,0.60
2022-11-03T23:52:31.910Z,0.85
2022-11-03T23:54:58.570Z,0.77
2022-11-03T23:57:43.933Z,0.60
